Time;durP1;ratioP1;P1;durP2;ratioP2;P2;SDS_P1;SDS_P2;PMS_P1;PMS_P2;Temp;Humidity;BMP_temperature;BMP_pressure;BME280_temperature;BME280_humidity;BME280_pressure;Samples;Min_cycle;Max_cycle;Signal;HPM_P1;HPM_P2
2022/03/05 00:01:28;;;;;;;7.80;3.70;;;1.10;97.90;;;;;;4186841;28;20049;-87
2022/03/05 00:03:30;;;;;;;7.72;3.78;;;2.00;98.30;;;;;;4168038;28;20053;-87
2022/03/05 00:05:33;;;;;;;9.90;3.97;;;0.90;98.00;;;;;;4184943;28;20051;-87
2022/03/05 00:07:35;;;;;;;8.80;4.00;;;1.60;98.10;;;;;;4182604;28;20050;-87
2022/03/05 00:09:36;;;;;;;8.13;4.03;;;1.10;97.90;;;;;;4180949;28;20047;-87
2022/03/05 00:11:39;;;;;;;8.70;4.22;;;1.80;98.40;;;;;;4168107;28;20054;-87
2022/03/05 00:13:41;;;;;;;11.75;5.10;;;0.70;98.10;;;;;;4169244;28;20515;-88
2022/03/05 00:15:46;;;;;;;11.90;3.83;;;0.70;98.20;;;;;;4164992;28;20048;-88
2022/03/05 00:17:49;;;;;;;8.88;4.72;;;1.50;98.30;;;;;;4182908;28;20407;-88
2022/03/05 00:19:51;;;;;;;12.48;4.38;;;0.60;98.20;;;;;;4186728;28;20094;-87
2022/03/05 00:21:54;;;;;;;8.40;3.92;;;0.70;98.30;;;;;;4186337;28;20045;-88
2022/03/05 00:23:56;;;;;;;7.22;3.58;;;1.80;98.30;;;;;;4164759;28;20173;-87
2022/03/05 00:25:58;;;;;;;8.25;4.05;;;2.10;98.40;;;;;;4185676;28;20410;-88
2022/03/05 00:28:00;;;;;;;9.52;4.45;;;1.00;98.00;;;;;;4183780;28;20049;-86
2022/03/05 00:30:01;;;;;;;8.35;4.10;;;1.00;98.10;;;;;;4184953;28;20481;-87
2022/03/05 00:32:02;;;;;;;8.18;3.88;;;0.60;98.00;;;;;;4169002;28;20053;-87
2022/03/05 00:34:03;;;;;;;6.72;4.07;;;0.60;98.00;;;;;;4183851;28;20108;-87
2022/03/05 00:42:38;;;;;;;12.63;3.53;;;0.60;98.40;;;;;;4170773;28;20072;-87
2022/03/05 00:44:40;;;;;;;8.02;3.90;;;1.00;98.50;;;;;;4169409;28;20049;-87
2022/03/05 00:46:41;;;;;;;7.10;3.55;;;0.70;98.10;;;;;;4185526;28;20135;-87
2022/03/05 00:48:43;;;;;;;9.23;3.60;;;1.30;98.20;;;;;;4169552;28;20042;-87
2022/03/05 00:50:44;;;;;;;6.63;3.50;;;0.80;98.20;;;;;;4168928;28;20045;-87
2022/03/05 00:52:45;;;;;;;9.65;3.88;;;0.00;98.30;;;;;;4170110;28;20064;-88
2022/03/05 00:54:46;;;;;;;9.65;4.25;;;1.10;98.60;;;;;;4187368;28;20383;-88
2022/03/05 00:56:48;;;;;;;7.05;3.85;;;0.10;98.40;;;;;;4187115;28;20037;-87
2022/03/05 00:58:50;;;;;;;7.93;3.90;;;1.00;98.70;;;;;;4169428;28;20041;-88
2022/03/05 01:00:52;;;;;;;8.60;3.83;;;0.40;98.50;;;;;;4169581;28;20061;-87
2022/03/05 01:02:55;;;;;;;7.78;3.72;;;1.40;98.90;;;;;;4187268;28;20122;-87
2022/03/05 01:04:56;;;;;;;9.88;4.03;;;0.30;98.80;;;;;;4169433;28;20057;-87
2022/03/05 01:06:58;;;;;;;7.80;3.80;;;0.00;98.80;;;;;;4185608;28;20056;-88
2022/03/05 01:09:01;;;;;;;8.75;4.82;;;0.90;99.20;;;;;;4185992;28;20056;-88
2022/03/05 01:11:02;;;;;;;7.93;3.70;;;0.50;98.90;;;;;;4169004;28;20041;-87
2022/03/05 01:13:03;;;;;;;9.45;3.85;;;1.20;99.00;;;;;;4186929;28;20048;-87
2022/03/05 01:15:06;;;;;;;6.93;3.80;;;1.40;99.30;;;;;;4186359;28;20048;-87
2022/03/05 01:17:08;;;;;;;10.07;4.82;;;0.00;98.80;;;;;;4187372;28;20045;-87
2022/03/05 01:19:10;;;;;;;10.85;4.25;;;1.20;99.10;;;;;;4169162;28;20056;-88
2022/03/05 01:21:11;;;;;;;11.25;4.90;;;1.20;99.30;;;;;;4185505;28;20033;-88
2022/03/05 01:23:12;;;;;;;8.82;4.30;;;1.50;99.20;;;;;;4169637;28;20104;-88
2022/03/05 01:25:15;;;;;;;9.57;4.60;;;0.80;99.30;;;;;;4169320;28;20456;-87
2022/03/05 01:27:18;;;;;;;7.95;4.47;;;0.60;99.10;;;;;;4168035;28;20045;-87
2022/03/05 01:29:19;;;;;;;8.07;3.95;;;0.00;99.00;;;;;;4168918;28;20048;-87
2022/03/05 01:31:20;;;;;;;8.20;4.18;;;0.00;99.20;;;;;;4169662;28;20045;-87
2022/03/05 01:33:24;;;;;;;11.98;4.85;;;1.30;99.80;;;;;;4185807;28;20510;-87
2022/03/05 01:35:26;;;;;;;11.43;4.60;;;-0.10;99.10;;;;;;4169491;28;20424;-87
2022/03/05 01:37:27;;;;;;;12.45;4.95;;;0.40;99.30;;;;;;4185411;28;20056;-87
2022/03/05 01:39:29;;;;;;;8.75;5.18;;;0.80;99.50;;;;;;4187138;28;20557;-88
2022/03/05 01:41:31;;;;;;;9.80;5.30;;;-0.90;99.40;;;;;;4187024;28;20044;-88
2022/03/05 01:43:32;;;;;;;10.18;4.57;;;-0.80;99.10;;;;;;4186453;28;20041;-88
2022/03/05 01:45:35;;;;;;;11.98;5.30;;;0.30;99.60;;;;;;4185973;28;20044;-87
2022/03/05 01:47:38;;;;;;;10.00;4.80;;;0.00;99.30;;;;;;4186682;28;20118;-88
2022/03/05 01:49:39;;;;;;;11.68;5.43;;;-0.30;99.20;;;;;;4168746;28;20115;-87
2022/03/05 01:51:42;;;;;;;9.63;4.90;;;0.20;99.40;;;;;;4168917;28;20049;-87
2022/03/05 01:53:45;;;;;;;10.30;5.30;;;1.10;99.70;;;;;;4185697;28;20091;-88
2022/03/05 01:55:46;;;;;;;11.85;5.88;;;-0.20;99.50;;;;;;4186396;28;20073;-87
2022/03/05 01:57:48;;;;;;;12.02;5.40;;;0.00;99.40;;;;;;4168855;28;20045;-87
2022/03/05 01:59:50;;;;;;;11.18;6.50;;;0.60;99.90;;;;;;4169448;28;20041;-88
2022/03/05 02:01:51;;;;;;;11.05;5.32;;;0.40;99.80;;;;;;4167384;28;20049;-87
2022/03/05 02:03:54;;;;;;;11.68;5.70;;;1.10;99.80;;;;;;4185618;28;20041;-88
2022/03/05 02:05:56;;;;;;;10.77;5.25;;;1.00;99.70;;;;;;4186737;28;20124;-86
2022/03/05 02:07:57;;;;;;;9.82;5.43;;;0.00;99.70;;;;;;4186673;28;20106;-87
2022/03/05 02:10:00;;;;;;;13.57;5.88;;;1.20;99.90;;;;;;4186363;28;20044;-88
2022/03/05 02:12:02;;;;;;;11.10;5.18;;;-0.30;99.70;;;;;;4187012;28;20056;-87
2022/03/05 02:14:04;;;;;;;13.52;6.72;;;-0.40;99.50;;;;;;4186742;28;20076;-87
2022/03/05 02:16:06;;;;;;;13.70;6.80;;;-0.40;99.80;;;;;;4186318;28;20049;-87
2022/03/05 02:18:13;;;;;;;11.50;6.10;;;-0.30;99.90;;;;;;4169997;28;20045;-87
2022/03/05 02:20:14;;;;;;;12.35;6.47;;;0.90;99.90;;;;;;4187630;28;20051;-88
2022/03/05 02:22:17;;;;;;;13.18;6.85;;;-0.30;99.90;;;;;;4168618;28;20045;-88
2022/03/05 02:24:31;;;;;;;13.50;7.15;;;0.40;99.90;;;;;;4185801;28;20055;-87
2022/03/05 02:26:33;;;;;;;12.55;7.22;;;-1.60;99.60;;;;;;4169594;28;20129;-87
2022/03/05 02:28:37;;;;;;;15.02;7.18;;;-0.20;99.90;;;;;;4184098;28;20127;-88
2022/03/05 02:30:39;;;;;;;12.88;7.05;;;-0.50;99.90;;;;;;4185456;28;20080;-87
2022/03/05 02:32:39;;;;;;;12.85;7.13;;;-0.50;99.90;;;;;;4185302;28;20060;-88
2022/03/05 02:34:43;;;;;;;13.52;6.32;;;0.30;99.90;;;;;;4168107;28;20049;-87
2022/03/05 02:36:48;;;;;;;12.50;7.00;;;0.70;99.90;;;;;;4182296;28;20064;-88
2022/03/05 02:38:50;;;;;;;10.52;6.40;;;0.80;99.90;;;;;;4185363;28;20112;-87
2022/03/05 02:40:52;;;;;;;12.55;6.68;;;0.90;99.90;;;;;;4189544;28;20045;-86
2022/03/05 02:43:01;;;;;;;12.52;6.30;;;0.30;99.90;;;;;;4173638;28;20053;-87
2022/03/05 02:45:03;;;;;;;;;;;-0.90;99.90;;;;;;4174570;28;20039;-87
2022/03/05 02:47:04;;;;;;;12.20;5.90;;;-1.50;99.90;;;;;;4173840;28;19927;-87
2022/03/05 02:49:12;;;;;;;11.57;5.35;;;-0.70;99.90;;;;;;4174162;28;20050;-87
2022/03/05 02:51:15;;;;;;;12.52;5.85;;;-0.90;99.90;;;;;;4174620;28;20049;-86
2022/03/05 02:53:17;;;;;;;11.20;5.43;;;-0.60;99.90;;;;;;4191131;28;20068;-87
2022/03/05 02:55:20;;;;;;;9.82;5.03;;;-0.10;99.90;;;;;;4190458;28;20131;-86
2022/03/05 02:57:22;;;;;;;10.30;4.72;;;-0.80;99.90;;;;;;4190811;28;20044;-86
2022/03/05 02:59:25;;;;;;;11.15;4.63;;;0.00;99.90;;;;;;4172919;28;20088;-87
2022/03/05 03:01:27;;;;;;;10.65;4.63;;;-0.70;99.90;;;;;;4190563;28;20049;-87
2022/03/05 03:03:30;;;;;;;8.80;5.35;;;-0.70;99.90;;;;;;4190833;28;20115;-87
2022/03/05 03:05:32;;;;;;;9.27;4.65;;;-0.70;99.90;;;;;;4173676;28;20463;-86
2022/03/05 03:07:39;;;;;;;11.50;4.57;;;-0.40;99.90;;;;;;4190821;28;20044;-86
2022/03/05 03:09:41;;;;;;;10.90;4.60;;;-0.70;99.90;;;;;;4172974;28;20049;-87
2022/03/05 03:11:44;;;;;;;11.68;5.57;;;0.80;99.90;;;;;;4191284;28;20048;-86
2022/03/05 03:13:47;;;;;;;11.00;4.93;;;0.60;99.90;;;;;;4173597;28;20049;-87
2022/03/05 03:15:49;;;;;;;9.20;5.00;;;-0.80;99.90;;;;;;4173121;28;20056;-88
2022/03/05 03:17:51;;;;;;;11.48;5.57;;;-0.70;99.90;;;;;;4172936;28;20053;-87
2022/03/05 03:19:53;;;;;;;15.35;7.25;;;-0.60;99.90;;;;;;4189696;28;20113;-87
2022/03/05 03:21:56;;;;;;;12.57;6.53;;;0.80;99.90;;;;;;4190678;28;20044;-87
2022/03/05 03:23:58;;;;;;;17.30;7.53;;;-0.80;99.90;;;;;;4190856;28;20052;-87
2022/03/05 03:26:03;;;;;;;14.55;7.13;;;-0.80;99.90;;;;;;4190264;28;20091;-87
2022/03/05 03:28:05;;;;;;;20.58;9.13;;;0.40;99.90;;;;;;4188407;28;20048;-87
2022/03/05 03:30:07;;;;;;;16.73;8.05;;;-0.20;99.90;;;;;;4189559;28;20065;-88
2022/03/05 03:32:08;;;;;;;15.15;7.30;;;-0.80;99.90;;;;;;4190092;28;20061;-87
2022/03/05 03:34:13;;;;;;;13.32;8.25;;;0.60;99.90;;;;;;4189860;28;20047;-87
2022/03/05 03:36:17;;;;;;;13.98;7.45;;;-0.90;99.90;;;;;;4188311;28;20041;-87
2022/03/05 03:38:20;;;;;;;14.15;8.18;;;-2.00;99.90;;;;;;4189208;28;20246;-87
2022/03/05 03:40:21;;;;;;;15.15;7.05;;;0.50;99.90;;;;;;4190302;28;20411;-86
2022/03/05 03:42:25;;;;;;;15.63;7.50;;;0.40;99.90;;;;;;4172791;28;20104;-88
2022/03/05 03:44:27;;;;;;;11.85;6.32;;;-0.90;99.90;;;;;;4189035;28;20045;-88
2022/03/05 03:46:29;;;;;;;13.05;7.25;;;-0.90;99.90;;;;;;4190568;28;20060;-87
2022/03/05 03:48:31;;;;;;;14.45;7.65;;;-1.00;99.90;;;;;;4173078;28;20065;-87
2022/03/05 03:50:32;;;;;;;16.92;7.53;;;-0.90;99.90;;;;;;4190060;28;20100;-87
2022/03/05 03:52:37;;;;;;;15.52;7.65;;;-0.10;99.90;;;;;;4189558;28;20053;-87
2022/03/05 03:54:39;;;;;;;17.27;7.90;;;-1.00;99.90;;;;;;4189140;28;20056;-87
2022/03/05 03:56:42;;;;;;;11.55;7.05;;;-0.20;99.90;;;;;;4189664;28;20410;-87
2022/03/05 03:58:47;;;;;;;15.60;8.50;;;0.20;99.90;;;;;;4189702;28;20072;-87
2022/03/05 04:00:48;;;;;;;13.65;7.43;;;-0.90;99.90;;;;;;4189056;28;20049;-87
2022/03/05 04:02:51;;;;;;;15.75;8.23;;;-0.80;99.90;;;;;;4190685;28;20056;-88
2022/03/05 04:04:52;;;;;;;18.15;7.78;;;0.10;99.90;;;;;;4190109;28;20053;-87
2022/03/05 04:09:15;;;;;;;14.10;7.25;;;-0.30;99.90;;;;;;4189401;28;20049;-87
2022/03/05 04:11:18;;;;;;;13.48;6.90;;;-0.90;99.90;;;;;;4172745;28;20053;-87
2022/03/05 04:13:20;;;;;;;13.15;7.55;;;-1.00;99.90;;;;;;4189273;28;20083;-87
2022/03/05 04:15:23;;;;;;;12.90;7.13;;;-1.00;99.90;;;;;;4170758;28;20049;-87
2022/03/05 04:17:25;;;;;;;16.25;7.47;;;-1.00;99.90;;;;;;4172804;28;20048;-87
2022/03/05 04:19:28;;;;;;;14.23;7.22;;;-1.80;99.90;;;;;;4172039;28;20041;-87
2022/03/05 04:21:30;;;;;;;13.15;7.15;;;-1.00;99.90;;;;;;4172963;28;20104;-88
2022/03/05 04:23:32;;;;;;;10.90;6.20;;;-0.40;99.90;;;;;;4172804;28;20045;-87
2022/03/05 04:25:40;;;;;;;11.15;5.72;;;-0.50;99.90;;;;;;4172209;28;20050;-88
2022/03/05 04:27:42;;;;;;;13.55;5.78;;;-0.90;99.90;;;;;;4172621;28;20065;-87
2022/03/05 04:29:49;;;;;;;12.85;5.10;;;-0.20;99.90;;;;;;4177910;28;20170;-88
2022/03/05 04:31:51;;;;;;;10.88;5.78;;;-0.50;99.90;;;;;;4187771;28;20076;-87
2022/03/05 04:33:53;;;;;;;13.25;5.85;;;0.40;99.90;;;;;;4188480;28;20048;-87
2022/03/05 04:35:55;;;;;;;12.38;5.50;;;-1.20;99.90;;;;;;4190169;28;20052;-87
2022/03/05 04:37:57;;;;;;;13.23;5.97;;;-1.10;99.90;;;;;;4189209;28;20040;-87
2022/03/05 04:39:59;;;;;;;13.82;6.47;;;-1.10;99.90;;;;;;4189853;28;20079;-87
2022/03/05 04:42:01;;;;;;;13.20;7.15;;;0.50;99.90;;;;;;4190656;28;20063;-88
2022/03/05 04:44:05;;;;;;;13.15;7.07;;;-1.70;99.90;;;;;;4189453;28;20069;-88
2022/03/05 04:46:07;;;;;;;13.02;7.30;;;-1.10;99.90;;;;;;4171881;28;20085;-87
2022/03/05 04:48:09;;;;;;;14.20;6.38;;;-0.90;99.90;;;;;;4189986;28;20049;-87
2022/03/05 04:50:11;;;;;;;18.83;6.38;;;-1.70;99.90;;;;;;4172594;28;20054;-87
2022/03/05 04:52:12;;;;;;;11.13;5.05;;;-0.50;99.90;;;;;;4187557;28;20116;-87
2022/03/05 04:54:14;;;;;;;9.68;5.10;;;-1.10;99.90;;;;;;4187829;28;20049;-87
2022/03/05 04:56:18;;;;;;;10.10;5.05;;;0.30;99.90;;;;;;4185944;28;20099;-88
2022/03/05 04:58:20;;;;;;;9.98;4.55;;;-0.30;99.90;;;;;;4190253;28;20037;-88
2022/03/05 05:00:22;;;;;;;8.57;4.03;;;-1.20;99.90;;;;;;4189966;28;20120;-88
2022/03/05 05:02:24;;;;;;;9.00;3.75;;;-1.00;99.90;;;;;;4189696;28;20037;-88
2022/03/05 05:04:27;;;;;;;10.38;3.72;;;-1.70;99.90;;;;;;4190416;28;20067;-87
2022/03/05 05:06:34;;;;;;;8.70;3.90;;;-0.10;99.90;;;;;;4172146;28;20085;-88
2022/03/05 05:08:37;;;;;;;8.43;3.85;;;-1.20;99.90;;;;;;4190203;28;20045;-88
2022/03/05 05:10:38;;;;;;;7.15;3.50;;;-0.40;99.90;;;;;;4189035;28;20114;-88
2022/03/05 05:12:43;;;;;;;8.45;3.50;;;-1.20;99.90;;;;;;4171872;28;20081;-87
2022/03/05 05:14:43;;;;;;;6.50;3.78;;;-1.20;99.90;;;;;;4190412;28;20056;-87
2022/03/05 05:16:45;;;;;;;9.68;4.30;;;-1.00;99.90;;;;;;4188814;28;20124;-87
2022/03/05 05:21:07;;;;;;;7.18;3.33;;;-1.20;99.90;;;;;;4188073;28;20049;-87
2022/03/05 05:23:08;;;;;;;8.15;3.78;;;-0.30;99.90;;;;;;4170897;28;20049;-87
2022/03/05 05:25:10;;;;;;;9.90;4.15;;;-1.20;99.90;;;;;;4186593;28;20068;-88
2022/03/05 05:27:13;;;;;;;9.05;3.63;;;-1.20;99.90;;;;;;4188180;28;20037;-88
2022/03/05 05:29:21;;;;;;;6.82;3.17;;;-1.20;99.90;;;;;;4187808;28;20053;-88
2022/03/05 05:31:23;;;;;;;9.13;4.20;;;-1.20;99.90;;;;;;4154648;28;20067;-86
2022/03/05 05:33:25;;;;;;;8.77;3.72;;;-1.30;99.90;;;;;;4172346;28;20095;-87
2022/03/05 05:35:27;;;;;;;8.52;3.88;;;-1.30;99.90;;;;;;4153957;28;20064;-88
2022/03/05 05:37:30;;;;;;;7.10;3.97;;;-1.30;99.90;;;;;;4173558;28;20049;-88
2022/03/05 05:39:32;;;;;;;7.38;3.70;;;-1.30;99.90;;;;;;4172865;28;20512;-88
2022/03/05 05:41:34;;;;;;;8.13;3.83;;;-1.30;99.90;;;;;;4171723;28;20045;-88
2022/03/05 05:43:36;;;;;;;6.70;3.42;;;-0.20;99.90;;;;;;4155258;28;20046;-87
2022/03/05 05:45:37;;;;;;;9.52;4.18;;;-0.20;99.90;;;;;;4159413;28;20483;-88
2022/03/05 05:47:39;;;;;;;6.75;3.58;;;-1.40;99.90;;;;;;4187981;28;20064;-88
2022/03/05 05:49:40;;;;;;;7.30;3.53;;;-1.40;99.90;;;;;;4188785;28;20044;-88
2022/03/05 05:51:42;;;;;;;8.95;3.88;;;-1.50;99.90;;;;;;4187172;28;20602;-88
2022/03/05 05:53:44;;;;;;;8.30;4.03;;;-2.10;99.90;;;;;;4171375;28;20046;-88
2022/03/05 05:55:46;;;;;;;7.85;3.88;;;-0.70;99.90;;;;;;4188755;28;20468;-88
2022/03/05 05:57:50;;;;;;;6.70;3.50;;;-1.30;99.90;;;;;;4171752;28;20064;-87
2022/03/05 05:59:51;;;;;;;8.93;3.92;;;-1.70;99.90;;;;;;4186842;28;20048;-86
2022/03/05 06:01:54;;;;;;;7.40;3.60;;;-1.40;99.90;;;;;;4189109;28;20645;-86
2022/03/05 06:03:56;;;;;;;10.65;4.55;;;-1.40;99.90;;;;;;4171299;28;20072;-87
2022/03/05 06:05:58;;;;;;;10.20;4.55;;;-1.40;99.90;;;;;;4187784;28;20068;-87
2022/03/05 06:08:00;;;;;;;9.98;4.55;;;-1.10;99.90;;;;;;4171133;28;20092;-87
2022/03/05 06:10:02;;;;;;;9.23;4.22;;;-1.40;99.90;;;;;;4188240;28;20072;-86
2022/03/05 06:12:04;;;;;;;8.15;4.30;;;-1.50;99.90;;;;;;4172744;28;20061;-87
2022/03/05 06:14:10;;;;;;;9.07;4.18;;;-2.40;99.90;;;;;;4189576;28;20044;-86
2022/03/05 06:16:14;;;;;;;9.13;3.92;;;-0.50;99.90;;;;;;4189898;28;20455;-87
2022/03/05 06:18:16;;;;;;;8.95;3.92;;;-1.80;99.90;;;;;;4171967;28;20055;-87
2022/03/05 06:20:18;;;;;;;9.68;4.43;;;-0.80;99.90;;;;;;4187101;28;20111;-87
2022/03/05 06:22:19;;;;;;;13.45;5.10;;;-1.00;99.90;;;;;;4187176;28;20041;-88
2022/03/05 06:24:22;;;;;;;8.90;3.97;;;-1.50;99.90;;;;;;4170762;28;20137;-88
2022/03/05 06:26:23;;;;;;;11.65;5.35;;;-1.50;99.90;;;;;;4188347;28;20044;-88
2022/03/05 06:28:25;;;;;;;10.50;4.40;;;-1.50;99.90;;;;;;4171125;28;20053;-88
2022/03/05 06:30:28;;;;;;;8.85;4.43;;;-1.50;99.90;;;;;;4170925;28;20053;-87
2022/03/05 06:32:29;;;;;;;10.70;4.72;;;-1.30;99.90;;;;;;4170476;28;20129;-87
2022/03/05 06:34:31;;;;;;;8.95;3.85;;;-1.30;99.90;;;;;;4187032;28;20045;-87
2022/03/05 06:36:36;;;;;;;7.40;3.97;;;-1.40;99.90;;;;;;4189301;28;20418;-86
2022/03/05 06:38:38;;;;;;;10.85;5.00;;;-1.40;99.90;;;;;;4171825;28;20041;-87
2022/03/05 06:40:40;;;;;;;8.93;4.20;;;0.00;99.90;;;;;;4170773;28;20048;-87
2022/03/05 06:42:42;;;;;;;8.98;4.35;;;0.10;99.90;;;;;;4171317;28;20514;-88
2022/03/05 06:44:44;;;;;;;7.82;4.35;;;-0.20;99.90;;;;;;4188155;28;20037;-87
2022/03/05 06:46:47;;;;;;;10.82;4.32;;;-0.70;99.90;;;;;;4188683;28;20487;-87
2022/03/05 06:48:49;;;;;;;7.50;4.32;;;-1.20;99.90;;;;;;4170232;28;20060;-88
2022/03/05 06:50:53;;;;;;;11.05;4.82;;;-0.60;99.90;;;;;;4185535;28;20056;-91
2022/03/05 06:52:55;;;;;;;11.30;4.20;;;-1.20;99.90;;;;;;4176844;28;20037;-88
2022/03/05 06:54:57;;;;;;;10.10;5.13;;;-0.20;99.90;;;;;;4168926;28;20045;-88
2022/03/05 06:57:04;;;;;;;9.93;4.70;;;-1.10;99.90;;;;;;4154573;28;20117;-88
2022/03/05 06:59:06;;;;;;;9.48;4.35;;;0.40;99.90;;;;;;4170045;28;20518;-88
2022/03/05 07:01:12;;;;;;;10.40;4.30;;;-1.60;99.90;;;;;;4179201;28;20037;-88
2022/03/05 07:03:14;;;;;;;11.07;4.82;;;0.70;99.90;;;;;;4177436;28;20037;-88
2022/03/05 07:05:16;;;;;;;9.68;4.57;;;-0.50;99.90;;;;;;4177957;28;20418;-87
2022/03/05 07:07:18;;;;;;;8.00;4.65;;;0.40;99.90;;;;;;4153323;28;20650;-88
2022/03/05 07:09:19;;;;;;;13.13;5.28;;;0.80;99.90;;;;;;4179572;28;20492;-87
2022/03/05 07:11:21;;;;;;;9.98;5.15;;;0.80;99.90;;;;;;4187134;28;20091;-87
2022/03/05 07:13:23;;;;;;;7.25;4.25;;;0.10;99.90;;;;;;4189127;28;20044;-87
2022/03/05 07:15:26;;;;;;;10.30;5.45;;;-0.40;99.90;;;;;;4194195;28;20017;-87
2022/03/05 07:17:28;;;;;;;11.73;4.55;;;2.20;99.90;;;;;;4173214;28;20532;-89
2022/03/05 07:19:28;;;;;;;11.80;5.43;;;2.50;99.90;;;;;;4165568;28;20033;-88
2022/03/05 07:21:30;;;;;;;9.63;4.38;;;1.40;99.70;;;;;;4165941;28;20253;-88
2022/03/05 07:23:32;;;;;;;11.30;4.30;;;2.10;99.40;;;;;;4183826;28;20479;-87
2022/03/05 07:25:39;;;;;;;10.07;4.32;;;2.10;99.50;;;;;;4166080;28;20049;-87
2022/03/05 07:27:42;;;;;;;13.63;4.47;;;1.90;99.50;;;;;;4168339;28;20617;-88
2022/03/05 07:29:43;;;;;;;9.90;4.18;;;2.90;99.90;;;;;;4177419;28;20095;-87
2022/03/05 07:31:45;;;;;;;8.57;4.20;;;2.60;99.80;;;;;;4180203;28;20060;-88
2022/03/05 07:33:46;;;;;;;9.02;4.03;;;1.60;99.60;;;;;;4172146;28;20423;-87
2022/03/05 07:35:48;;;;;;;9.90;4.72;;;2.50;99.70;;;;;;4169800;28;20507;-86
2022/03/05 07:37:50;;;;;;;8.40;4.22;;;1.90;99.50;;;;;;4183228;28;20041;-87
2022/03/05 07:39:51;;;;;;;10.07;4.22;;;3.60;99.20;;;;;;4184522;28;20116;-88
2022/03/05 07:41:53;;;;;;;7.97;4.45;;;2.70;98.90;;;;;;4173175;28;20115;-87
2022/03/05 07:43:55;;;;;;;14.30;5.40;;;2.80;98.70;;;;;;4174735;28;20045;-87
2022/03/05 07:45:56;;;;;;;9.07;4.20;;;2.60;98.70;;;;;;4165820;28;20037;-87
2022/03/05 07:47:57;;;;;;;8.55;4.35;;;2.10;98.60;;;;;;4184336;28;20056;-87
2022/03/05 07:49:58;;;;;;;10.30;4.40;;;3.00;98.40;;;;;;4170143;28;20046;-87
2022/03/05 07:51:59;;;;;;;9.35;4.30;;;3.10;98.20;;;;;;4167113;28;20071;-88
2022/03/05 07:54:00;;;;;;;9.07;4.50;;;4.10;98.20;;;;;;4183599;28;20120;-88
2022/03/05 07:56:02;;;;;;;9.10;4.90;;;3.60;98.00;;;;;;4151069;28;20109;-87
2022/03/05 07:58:05;;;;;;;10.57;4.40;;;3.30;97.80;;;;;;4176592;28;20045;-86
2022/03/05 08:00:07;;;;;;;7.88;4.43;;;3.60;97.60;;;;;;4183827;28;20053;-86
2022/03/05 08:02:08;;;;;;;9.05;4.20;;;3.90;97.10;;;;;;4188091;28;20094;-87
2022/03/05 08:04:08;;;;;;;12.48;4.15;;;4.30;96.70;;;;;;4189172;28;20507;-86
2022/03/05 08:06:10;;;;;;;7.38;4.38;;;5.30;96.30;;;;;;4189282;28;20543;-86
2022/03/05 08:08:11;;;;;;;9.18;4.63;;;5.10;95.80;;;;;;4188029;28;20093;-85
2022/03/05 08:10:12;;;;;;;10.43;4.47;;;5.50;95.30;;;;;;4188232;28;20087;-87
2022/03/05 08:12:13;;;;;;;8.20;4.10;;;5.90;94.90;;;;;;4190905;28;20049;-87
2022/03/05 08:14:13;;;;;;;10.38;4.95;;;7.20;94.80;;;;;;4187214;28;20051;-85
2022/03/05 08:16:14;;;;;;;7.88;4.32;;;;;;;;;;4184547;28;20049;-86
2022/03/05 08:18:16;;;;;;;9.68;4.30;;;;;;;;;;4185037;28;20064;-86
2022/03/05 08:20:18;;;;;;;12.48;5.07;;;;;;;;;;4185435;28;20045;-86
2022/03/05 08:22:20;;;;;;;9.15;4.60;;;;;;;;;;4169989;28;20556;-86
2022/03/05 08:24:21;;;;;;;10.35;4.28;;;;;;;;;;4168569;28;20073;-87
2022/03/05 08:26:23;;;;;;;8.27;4.63;;;;;;;;;;4151648;28;20124;-87
2022/03/05 08:28:24;;;;;;;12.35;5.13;;;;;;;;;;4173882;28;20041;-87
2022/03/05 08:30:25;;;;;;;9.75;4.85;;;;;;;;;;4183433;28;20051;-87
2022/03/05 08:32:26;;;;;;;8.05;4.15;;;;;;;;;;4171219;28;20057;-88
2022/03/05 08:34:28;;;;;;;8.70;4.03;;;;;;;;;;4189699;28;20065;-87
2022/03/05 08:36:37;;;;;;;7.75;4.70;;;;;;;;;;4172123;28;20049;-87
2022/03/05 08:38:40;;;;;;;8.18;4.93;;;;;;;;;;4186640;28;20064;-87
2022/03/05 08:40:41;;;;;;;9.10;4.70;;;;;;;;;;4188522;28;20056;-87
2022/03/05 08:42:51;;;;;;;9.70;4.47;;;;;;;;;;4185563;28;20099;-86
2022/03/05 08:44:52;;;;;;;9.20;5.18;;;;;;;;;;4184248;28;20044;-86
2022/03/05 08:46:54;;;;;;;9.90;4.85;;;;;;;;;;4185042;28;20102;-87
2022/03/05 08:48:56;;;;;;;8.65;5.00;;;;;;;;;;4178129;28;20045;-84
2022/03/05 08:50:57;;;;;;;8.27;4.68;;;;;;;;;;4186893;28;20053;-87
2022/03/05 08:53:08;;;;;;;10.15;5.20;;;;;;;;;;4185519;28;20045;-88
2022/03/05 08:55:21;;;;;;;8.93;5.03;;;;;;;;;;4189885;28;20065;-88
2022/03/05 08:57:41;;;;;;;12.02;5.60;;;;;;;;;;4190779;28;20113;-88
2022/03/05 08:59:44;;;;;;;8.13;4.40;;;;;;;;;;4188618;28;20100;-88
2022/03/05 09:01:47;;;;;;;11.43;4.70;;;;;;;;;;4185053;28;20087;-88
2022/03/05 09:03:50;;;;;;;12.48;5.40;;;;;;;;;;4182834;28;20079;-88
2022/03/05 09:05:52;;;;;;;8.05;4.30;;;;;;;;;;4170756;28;20049;-88
2022/03/05 09:07:53;;;;;;;7.40;4.60;;;;;;;;;;4165609;28;20400;-88
2022/03/05 09:09:55;;;;;;;14.20;5.47;;;;;;;;;;4165506;28;20037;-88
2022/03/05 09:11:56;;;;;;;11.02;4.72;;;;;;;;;;4167263;28;20049;-88
2022/03/05 09:13:57;;;;;;;11.32;4.93;;;;;;;;;;4166449;28;20087;-87
2022/03/05 09:15:58;;;;;;;9.73;5.03;;;;;;;;;;4148215;28;20074;-87
2022/03/05 09:17:59;;;;;;;7.65;4.88;;;;;;;;;;4166414;28;20046;-87
2022/03/05 09:20:01;;;;;;;14.77;6.05;;;;;;;;;;4167245;28;20050;-87
2022/03/05 09:22:03;;;;;;;9.57;5.43;;;;;;;;;;4168829;28;20048;-88
2022/03/05 09:24:05;;;;;;;8.95;4.70;;;;;;;;;;4166778;28;20041;-87
2022/03/05 09:26:06;;;;;;;8.43;4.40;;;;;;;;;;4166645;28;20190;-88
2022/03/05 09:28:08;;;;;;;11.60;5.13;;;;;;;;;;4165501;28;20513;-87
2022/03/05 09:30:10;;;;;;;9.05;4.82;;;;;;;;;;4173997;28;20155;-87
2022/03/05 09:32:11;;;;;;;9.98;4.63;;;;;;;;;;4182766;28;20053;-87
2022/03/05 09:34:12;;;;;;;9.18;5.15;;;;;;;;;;4181871;28;20049;-87
2022/03/05 09:36:13;;;;;;;11.70;5.10;;;;;;;;;;4181615;28;20053;-87
2022/03/05 09:38:14;;;;;;;8.93;5.60;;;;;;;;;;4182115;28;20040;-88
2022/03/05 09:40:15;;;;;;;9.48;4.65;;;;;;;;;;4182584;28;20053;-88
2022/03/05 09:42:17;;;;;;;7.90;4.55;;;;;;;;;;4178275;28;20123;-88
2022/03/05 09:44:18;;;;;;;8.85;4.60;;;;;;;;;;4176947;28;20045;-88
2022/03/05 09:46:20;;;;;;;10.75;5.63;;;;;;;;;;4180521;28;20395;-88
2022/03/05 09:48:21;;;;;;;8.05;4.72;;;;;;;;;;4181499;28;20048;-88
2022/03/05 09:50:24;;;;;;;9.40;5.38;;;;;;;;;;4182857;28;20515;-88
2022/03/05 09:52:26;;;;;;;10.57;5.03;;;;;;;;;;4181872;28;20049;-88
2022/03/05 09:54:28;;;;;;;11.88;5.07;;;;;;;;;;4182302;28;20570;-89
2022/03/05 09:56:29;;;;;;;9.88;5.05;;;;;;;;;;4182636;28;20102;-89
2022/03/05 09:58:30;;;;;;;10.75;5.65;;;;;;;;;;4180972;28;20045;-88
2022/03/05 10:00:31;;;;;;;9.48;4.95;;;;;;;;;;4182566;28;20479;-88
2022/03/05 10:02:32;;;;;;;10.55;4.68;;;;;;;;;;4182356;28;20079;-87
2022/03/05 10:04:34;;;;;;;9.73;5.22;;;;;;;;;;4182867;28;20483;-87
2022/03/05 10:06:35;;;;;;;9.88;4.97;;;;;;;;;;4182520;28;20120;-87
2022/03/05 10:08:36;;;;;;;10.02;5.13;;;;;;;;;;4182332;28;20574;-87
2022/03/05 10:10:48;;;;;;;11.15;5.78;;;;;;;;;;4182282;28;20457;-87
2022/03/05 10:12:49;;;;;;;11.73;6.32;;;;;;;;;;4181960;28;20051;-88
2022/03/05 10:15:08;;;;;;;12.25;5.95;;;;;;;;;;4180672;28;20088;-88
2022/03/05 10:17:11;;;;;;;10.10;4.97;;;;;;;;;;4182318;28;20045;-88
2022/03/05 10:19:24;;;;;;;9.85;5.28;;;;;;;;;;4181545;28;20107;-89
2022/03/05 10:21:29;;;;;;;10.05;5.40;;;;;;;;;;4180917;28;20044;-88
2022/03/05 10:23:36;;;;;;;13.07;6.35;;;;;;;;;;4181077;28;20510;-88
2022/03/05 10:25:44;;;;;;;9.77;5.53;;;;;;;;;;4181768;28;20079;-88
2022/03/05 10:27:45;;;;;;;9.70;5.10;;;;;;;;;;4182001;28;20344;-88
2022/03/05 10:29:47;;;;;;;10.65;5.30;;;;;;;;;;4182150;28;20380;-88
2022/03/05 10:32:04;;;;;;;16.98;5.82;;;;;;;;;;4180950;28;20048;-88
2022/03/05 10:34:05;;;;;;;10.00;5.40;;;;;;;;;;4181346;28;20044;-88
2022/03/05 10:36:18;;;;;;;9.38;5.45;;;;;;;;;;4180634;28;20045;-88
2022/03/05 10:38:19;;;;;;;10.82;5.68;;;;;;;;;;4182605;28;20041;-88
2022/03/05 10:40:27;;;;;;;12.02;6.45;;;;;;;;;;4181535;28;20044;-88
2022/03/05 10:42:29;;;;;;;12.43;5.40;;;;;;;;;;4180661;28;20056;-88
2022/03/05 10:44:31;;;;;;;10.23;5.57;;;;;;;;;;4183674;28;20076;-87
2022/03/05 10:46:48;;;;;;;9.95;5.65;;;;;;;;;;4183357;28;20045;-88
2022/03/05 10:48:49;;;;;;;9.98;5.07;;;;;;;;;;4181943;28;20084;-88
2022/03/05 10:51:14;;;;;;;10.18;5.40;;;;;;;;;;4170588;28;20052;-87
2022/03/05 10:53:18;;;;;;;10.77;5.07;;;;;;;;;;4174341;28;20094;-88
2022/03/05 10:55:20;;;;;;;11.73;5.10;;;;;;;;;;4165514;28;20514;-87
2022/03/05 10:57:23;;;;;;;11.93;5.70;;;;;;;;;;4174170;28;20121;-88
2022/03/05 10:59:24;;;;;;;10.73;5.78;;;;;;;;;;4181916;28;20049;-88
2022/03/05 11:01:25;;;;;;;10.93;5.60;;;;;;;;;;4184559;28;20530;-88
2022/03/05 11:03:26;;;;;;;10.77;5.85;;;;;;;;;;4183911;28;20063;-88
2022/03/05 11:05:28;;;;;;;9.70;5.45;;;;;;;;;;4183509;28;20075;-88
2022/03/05 11:07:29;;;;;;;9.23;5.40;;;;;;;;;;4184722;28;20124;-88
2022/03/05 11:09:31;;;;;;;13.00;7.07;;;;;;;;;;4178512;28;20075;-88
2022/03/05 11:11:35;;;;;;;11.32;5.57;;;;;;;;;;4186472;28;20144;-87